Time;durP1;ratioP1;P1;durP2;ratioP2;P2;SDS_P1;SDS_P2;PMS_P1;PMS_P2;Temp;Humidity;BMP_temperature;BMP_pressure;BME280_temperature;BME280_humidity;BME280_pressure;Samples;Min_cycle;Max_cycle;Signal;HPM_P1;HPM_P2
2023/09/09 00:00:30;;;;;;;15.57;13.70;;;;;;;;;;5032388;28;20120;-61
2023/09/09 00:02:56;;;;;;;15.00;13.35;;;;;;;;;;5032416;28;20041;-61
2023/09/09 00:05:22;;;;;;;17.40;15.10;;;;;;;;;;5032248;28;20061;-61
2023/09/09 00:07:48;;;;;;;17.92;14.07;;;;;;;;;;5032230;28;20117;-61
2023/09/09 00:10:14;;;;;;;19.90;15.52;;;;;;;;;;5032053;28;20056;-61
2023/09/09 00:12:40;;;;;;;16.95;14.13;;;;;;;;;;5032072;28;20037;-61
2023/09/09 00:15:06;;;;;;;18.73;14.80;;;;;;;;;;5032087;28;20124;-61
2023/09/09 00:17:32;;;;;;;17.42;15.60;;;;;;;;;;5048764;28;20056;-61
2023/09/09 00:19:59;;;;;;;19.23;15.18;;;;;;;;;;5051853;28;20040;-61
2023/09/09 00:22:25;;;;;;;16.75;14.68;;;;;;;;;;5052027;28;20040;-61
2023/09/09 00:24:51;;;;;;;17.63;15.68;;;;;;;;;;5051786;28;20049;-61
2023/09/09 00:27:17;;;;;;;19.00;15.25;;;;;;;;;;5051726;28;20037;-61
2023/09/09 00:29:43;;;;;;;19.20;14.48;;;;;;;;;;5051370;28;20055;-61
2023/09/09 00:32:09;;;;;;;19.35;15.13;;;;;;;;;;5051693;28;20045;-61
2023/09/09 00:34:35;;;;;;;17.02;13.43;;;;;;;;;;5051690;28;20045;-61
2023/09/09 00:37:03;;;;;;;16.67;13.93;;;;;;;;;;5051544;28;20048;-61
2023/09/09 00:39:30;;;;;;;14.73;13.13;;;;;;;;;;5051490;28;20044;-61
2023/09/09 00:41:56;;;;;;;15.77;13.20;;;;;;;;;;5051281;28;20070;-61
2023/09/09 00:44:22;;;;;;;14.00;12.52;;;;;;;;;;5051358;28;20048;-61
2023/09/09 00:46:48;;;;;;;14.05;12.55;;;;;;;;;;5051225;28;20037;-61
2023/09/09 00:49:14;;;;;;;14.05;11.88;;;;;;;;;;5050695;28;20048;-61
2023/09/09 00:51:40;;;;;;;12.80;10.88;;;;;;;;;;5051286;28;20041;-61
2023/09/09 00:54:06;;;;;;;13.70;11.80;;;;;;;;;;5051141;28;20044;-61
2023/09/09 00:56:34;;;;;;;13.80;11.43;;;;;;;;;;5051355;28;20053;-61
2023/09/09 00:59:00;;;;;;;13.38;11.50;;;;;;;;;;5051312;28;20356;-61
2023/09/09 01:01:26;;;;;;;13.18;10.73;;;;;;;;;;5051263;28;20029;-61
2023/09/09 01:03:53;;;;;;;12.57;11.27;;;;;;;;;;5051118;28;20055;-61
2023/09/09 01:06:22;;;;;;;10.95;9.85;;;;;;;;;;5051086;28;20119;-61
2023/09/09 01:08:48;;;;;;;14.27;10.68;;;;;;;;;;5051061;28;20076;-61
2023/09/09 01:11:14;;;;;;;12.63;9.95;;;;;;;;;;5050984;28;20071;-61
2023/09/09 01:13:40;;;;;;;12.40;10.23;;;;;;;;;;5051039;28;20033;-61
2023/09/09 01:16:06;;;;;;;11.57;10.38;;;;;;;;;;5045980;28;20072;-61
2023/09/09 01:18:34;;;;;;;12.63;10.68;;;;;;;;;;5030987;28;20045;-61
2023/09/09 01:21:05;;;;;;;15.02;11.23;;;;;;;;;;5030679;28;20045;-61
2023/09/09 01:23:31;;;;;;;13.00;10.25;;;;;;;;;;5030992;28;20045;-61
2023/09/09 01:25:57;;;;;;;11.77;9.00;;;;;;;;;;5030894;28;20069;-61
2023/09/09 01:28:23;;;;;;;13.82;10.55;;;;;;;;;;5030812;28;20084;-61
2023/09/09 01:30:50;;;;;;;13.38;10.20;;;;;;;;;;5030874;28;20045;-61
2023/09/09 01:33:16;;;;;;;11.98;10.35;;;;;;;;;;5030838;28;20080;-61
2023/09/09 01:35:43;;;;;;;13.98;10.57;;;;;;;;;;5030964;28;20042;-61
2023/09/09 01:38:09;;;;;;;12.23;10.60;;;;;;;;;;5013078;28;20064;-61
2023/09/09 01:40:35;;;;;;;10.82;9.73;;;;;;;;;;5030712;28;20372;-61
2023/09/09 01:43:01;;;;;;;10.70;9.60;;;;;;;;;;5030691;28;20073;-61
2023/09/09 01:45:27;;;;;;;13.68;9.45;;;;;;;;;;5030785;28;20045;-61
2023/09/09 01:47:53;;;;;;;10.85;8.55;;;;;;;;;;5030615;28;20033;-61
2023/09/09 01:50:19;;;;;;;8.82;7.93;;;;;;;;;;5030363;28;20061;-61
2023/09/09 01:52:45;;;;;;;11.07;8.80;;;;;;;;;;5030679;28;20049;-61
2023/09/09 01:55:11;;;;;;;9.77;8.88;;;;;;;;;;5030292;28;20136;-61
2023/09/09 01:57:37;;;;;;;10.65;9.57;;;;;;;;;;5030600;28;20088;-61
2023/09/09 02:00:09;;;;;;;14.23;11.13;;;;;;;;;;5030339;28;20049;-61
2023/09/09 02:02:36;;;;;;;13.18;11.80;;;;;;;;;;5034033;28;20083;-61
2023/09/09 02:05:02;;;;;;;12.02;10.77;;;;;;;;;;5034619;28;20077;-61
2023/09/09 02:07:28;;;;;;;12.15;10.90;;;;;;;;;;5034619;28;20037;-61
2023/09/09 02:09:54;;;;;;;12.18;10.65;;;;;;;;;;5034482;28;20056;-61
2023/09/09 02:12:21;;;;;;;12.82;11.52;;;;;;;;;;5034582;28;20046;-61
2023/09/09 02:14:47;;;;;;;11.43;10.23;;;;;;;;;;5034120;28;20069;-61
2023/09/09 02:17:13;;;;;;;12.57;10.88;;;;;;;;;;5048229;28;20037;-61
2023/09/09 02:19:39;;;;;;;14.15;11.15;;;;;;;;;;5053917;28;20041;-61
2023/09/09 02:22:05;;;;;;;12.35;11.10;;;;;;;;;;5054249;28;20119;-61
2023/09/09 02:24:31;;;;;;;11.82;10.57;;;;;;;;;;5054197;28;20041;-61
2023/09/09 02:26:57;;;;;;;13.30;10.27;;;;;;;;;;5054157;28;20041;-61
2023/09/09 02:29:23;;;;;;;15.57;11.32;;;;;;;;;;5053942;28;20056;-61
2023/09/09 02:31:50;;;;;;;13.07;10.48;;;;;;;;;;5054143;28;20041;-61
2023/09/09 02:34:16;;;;;;;12.70;11.07;;;;;;;;;;5053813;28;20041;-61
2023/09/09 02:36:43;;;;;;;14.43;11.82;;;;;;;;;;5053877;28;20493;-61
2023/09/09 02:39:10;;;;;;;13.55;11.70;;;;;;;;;;5053364;28;20044;-61
2023/09/09 02:41:36;;;;;;;13.15;10.95;;;;;;;;;;5053756;28;20402;-61
2023/09/09 02:44:02;;;;;;;9.45;8.48;;;;;;;;;;5053261;28;20060;-61
2023/09/09 02:46:28;;;;;;;9.35;8.45;;;;;;;;;;5053228;28;20434;-61
2023/09/09 02:48:54;;;;;;;8.88;7.47;;;;;;;;;;5052360;28;20044;-61
2023/09/09 02:51:20;;;;;;;9.60;8.05;;;;;;;;;;5052785;28;20064;-61
2023/09/09 02:53:46;;;;;;;9.77;8.40;;;;;;;;;;5052866;28;20052;-61
2023/09/09 02:56:12;;;;;;;10.85;9.77;;;;;;;;;;5052654;28;20419;-61
2023/09/09 02:58:38;;;;;;;13.77;11.13;;;;;;;;;;5052567;28;20041;-61
2023/09/09 03:01:05;;;;;;;11.95;10.43;;;;;;;;;;5052603;28;20047;-61
2023/09/09 03:03:31;;;;;;;12.93;11.13;;;;;;;;;;5052704;28;20045;-61
2023/09/09 03:05:57;;;;;;;13.30;10.73;;;;;;;;;;5052678;28;20043;-61
2023/09/09 03:08:23;;;;;;;11.40;10.10;;;;;;;;;;5053028;28;20495;-61
2023/09/09 03:10:49;;;;;;;13.23;10.43;;;;;;;;;;5052822;28;20043;-61
2023/09/09 03:13:16;;;;;;;13.20;11.77;;;;;;;;;;5052307;28;20146;-61
2023/09/09 03:15:42;;;;;;;12.43;11.13;;;;;;;;;;5051415;28;20549;-61
2023/09/09 03:18:08;;;;;;;14.38;11.93;;;;;;;;;;5033250;28;20041;-61
2023/09/09 03:20:34;;;;;;;13.98;12.18;;;;;;;;;;5032955;28;20041;-61
2023/09/09 03:23:00;;;;;;;12.55;11.25;;;;;;;;;;5032883;28;20041;-61
2023/09/09 03:25:27;;;;;;;14.23;10.93;;;;;;;;;;5033053;28;20144;-61
2023/09/09 03:27:53;;;;;;;11.75;10.65;;;;;;;;;;5032960;28;20083;-61
2023/09/09 03:30:21;;;;;;;11.48;10.20;;;;;;;;;;5032834;28;20095;-61
2023/09/09 03:32:47;;;;;;;11.27;10.07;;;;;;;;;;5033010;28;20053;-61
2023/09/09 03:35:13;;;;;;;11.90;10.32;;;;;;;;;;5032823;28;20041;-61
2023/09/09 03:37:39;;;;;;;11.25;9.93;;;;;;;;;;5032976;28;20041;-61
2023/09/09 03:40:05;;;;;;;13.23;10.63;;;;;;;;;;5032687;28;20124;-61
2023/09/09 03:42:33;;;;;;;12.35;9.63;;;;;;;;;;5014877;28;20104;-61
2023/09/09 03:44:59;;;;;;;12.13;9.57;;;;;;;;;;5032724;28;20046;-61
2023/09/09 03:47:25;;;;;;;12.90;10.35;;;;;;;;;;5014470;28;20119;-61
2023/09/09 03:49:54;;;;;;;15.25;10.77;;;;;;;;;;5032255;28;20061;-61
2023/09/09 03:52:21;;;;;;;13.13;10.80;;;;;;;;;;5032401;28;20069;-61
2023/09/09 03:54:47;;;;;;;15.15;12.73;;;;;;;;;;5032458;28;20045;-61
2023/09/09 03:57:13;;;;;;;14.73;12.10;;;;;;;;;;5032419;28;20353;-61
2023/09/09 03:59:39;;;;;;;15.82;13.27;;;;;;;;;;5032339;28;20387;-61
2023/09/09 04:02:05;;;;;;;14.68;12.45;;;;;;;;;;5032420;28;20041;-61
2023/09/09 04:04:31;;;;;;;17.58;13.50;;;;;;;;;;5032247;28;20033;-61
2023/09/09 04:06:57;;;;;;;17.65;13.80;;;;;;;;;;5032117;28;20030;-61
2023/09/09 04:09:26;;;;;;;17.95;15.10;;;;;;;;;;5032257;28;20041;-61
2023/09/09 04:11:53;;;;;;;17.35;15.52;;;;;;;;;;5031898;28;20096;-61
2023/09/09 04:14:19;;;;;;;21.48;15.82;;;;;;;;;;5032134;28;20115;-61
2023/09/09 04:16:45;;;;;;;22.70;17.58;;;;;;;;;;5041887;28;20040;-61
2023/09/09 04:19:11;;;;;;;21.05;16.35;;;;;;;;;;5051899;28;20040;-61
2023/09/09 04:21:37;;;;;;;22.67;17.88;;;;;;;;;;5051856;28;20778;-61
2023/09/09 04:24:03;;;;;;;19.55;17.38;;;;;;;;;;5051055;28;20072;-61
2023/09/09 04:26:29;;;;;;;20.80;17.60;;;;;;;;;;5051847;28;20041;-61
2023/09/09 04:28:55;;;;;;;19.55;16.95;;;;;;;;;;5051709;28;20048;-61
2023/09/09 04:31:21;;;;;;;20.92;17.52;;;;;;;;;;5033825;28;20044;-61
2023/09/09 04:33:47;;;;;;;20.40;16.58;;;;;;;;;;5051749;28;20052;-61
2023/09/09 04:36:14;;;;;;;21.15;16.98;;;;;;;;;;5051726;28;20509;-61
2023/09/09 04:38:40;;;;;;;21.75;16.33;;;;;;;;;;5051806;28;20124;-61
2023/09/09 04:41:06;;;;;;;20.45;16.38;;;;;;;;;;5051260;28;20079;-61
2023/09/09 04:43:32;;;;;;;19.33;16.92;;;;;;;;;;5051270;28;20049;-61
2023/09/09 04:45:58;;;;;;;21.83;17.80;;;;;;;;;;5051357;28;20037;-61
2023/09/09 04:48:24;;;;;;;20.98;18.50;;;;;;;;;;5051307;28;20099;-61
2023/09/09 04:50:50;;;;;;;26.80;20.38;;;;;;;;;;5050904;28;20110;-61
2023/09/09 04:53:16;;;;;;;26.83;19.70;;;;;;;;;;5051461;28;20044;-61
2023/09/09 04:55:42;;;;;;;21.85;17.92;;;;;;;;;;5051063;28;20067;-61
2023/09/09 04:58:12;;;;;;;21.35;16.63;;;;;;;;;;5051282;28;20095;-61
2023/09/09 05:00:38;;;;;;;22.17;16.88;;;;;;;;;;5051104;28;20040;-61
2023/09/09 05:03:04;;;;;;;21.85;17.48;;;;;;;;;;5051121;28;20044;-61
2023/09/09 05:05:30;;;;;;;21.67;18.17;;;;;;;;;;5051079;28;20082;-61
2023/09/09 05:07:56;;;;;;;23.10;18.23;;;;;;;;;;5051016;28;20393;-61
2023/09/09 05:10:24;;;;;;;22.73;19.23;;;;;;;;;;5051043;28;20041;-61
2023/09/09 05:12:50;;;;;;;25.17;19.58;;;;;;;;;;5050907;28;20067;-61
2023/09/09 05:15:16;;;;;;;25.17;20.65;;;;;;;;;;5050743;28;20056;-61
2023/09/09 05:17:42;;;;;;;22.40;18.58;;;;;;;;;;5032818;28;20045;-61
2023/09/09 05:20:09;;;;;;;24.55;20.27;;;;;;;;;;5030917;28;20046;-61
2023/09/09 05:22:35;;;;;;;24.92;21.02;;;;;;;;;;5030995;28;20049;-61
2023/09/09 05:25:01;;;;;;;27.08;20.50;;;;;;;;;;5030955;28;20041;-61
2023/09/09 05:27:27;;;;;;;27.52;22.33;;;;;;;;;;5030926;28;20542;-61
2023/09/09 05:29:53;;;;;;;26.52;21.73;;;;;;;;;;5030845;28;20384;-61
2023/09/09 05:32:19;;;;;;;29.50;22.15;;;;;;;;;;5030741;28;20041;-61
2023/09/09 05:34:45;;;;;;;23.85;20.30;;;;;;;;;;5030686;28;20128;-61
2023/09/09 05:37:11;;;;;;;28.00;22.33;;;;;;;;;;5013061;28;20072;-61
2023/09/09 05:39:37;;;;;;;28.65;23.63;;;;;;;;;;5030732;28;20052;-61
2023/09/09 05:42:05;;;;;;;28.08;22.65;;;;;;;;;;5030646;28;20044;-61
2023/09/09 05:44:31;;;;;;;34.22;24.23;;;;;;;;;;5030510;28;20049;-61
2023/09/09 05:46:57;;;;;;;29.50;23.52;;;;;;;;;;5030608;28;20037;-61
2023/09/09 05:49:23;;;;;;;33.38;24.83;;;;;;;;;;5030238;28;20057;-61
2023/09/09 05:51:49;;;;;;;34.15;26.67;;;;;;;;;;5012674;28;20179;-61
2023/09/09 05:54:15;;;;;;;33.72;26.30;;;;;;;;;;5030518;28;20046;-61
2023/09/09 05:56:41;;;;;;;32.92;27.65;;;;;;;;;;5030634;28;20377;-61
2023/09/09 05:59:08;;;;;;;38.45;29.00;;;;;;;;;;5030360;28;20041;-61
2023/09/09 06:01:34;;;;;;;32.90;27.80;;;;;;;;;;5030293;28;20045;-61
2023/09/09 06:04:00;;;;;;;33.15;26.38;;;;;;;;;;5030492;28;20506;-61
2023/09/09 06:06:26;;;;;;;38.72;27.98;;;;;;;;;;5030426;28;20029;-61
2023/09/09 06:08:52;;;;;;;36.42;29.25;;;;;;;;;;5030094;28;20046;-61
2023/09/09 06:11:18;;;;;;;36.60;29.23;;;;;;;;;;5030517;28;20041;-61
2023/09/09 06:13:44;;;;;;;37.65;29.70;;;;;;;;;;5030452;28;20071;-61
2023/09/09 06:16:10;;;;;;;37.42;29.90;;;;;;;;;;5035886;28;20120;-61
2023/09/09 06:18:37;;;;;;;40.53;31.30;;;;;;;;;;5050352;28;20040;-61
2023/09/09 06:21:03;;;;;;;42.97;32.92;;;;;;;;;;5050172;28;20033;-61
2023/09/09 06:23:29;;;;;;;44.47;33.58;;;;;;;;;;5050348;28;20040;-61
2023/09/09 06:25:55;;;;;;;43.00;34.30;;;;;;;;;;5050175;28;20091;-61
2023/09/09 06:28:21;;;;;;;51.75;37.83;;;;;;;;;;5050235;28;20076;-61
2023/09/09 06:30:47;;;;;;;46.40;37.22;;;;;;;;;;5050236;28;20090;-61
2023/09/09 06:33:13;;;;;;;41.40;35.15;;;;;;;;;;5050228;28;20425;-61
2023/09/09 06:35:49;;;;;;;44.72;35.15;;;;;;;;;;5050038;28;20098;-61
2023/09/09 06:38:15;;;;;;;48.72;37.00;;;;;;;;;;5050144;28;20124;-61
2023/09/09 06:40:43;;;;;;;52.60;39.95;;;;;;;;;;5050018;28;20049;-61
2023/09/09 06:43:09;;;;;;;45.72;37.55;;;;;;;;;;5049927;28;20052;-61
2023/09/09 06:45:35;;;;;;;49.17;39.83;;;;;;;;;;5049992;28;20040;-61
2023/09/09 06:48:03;;;;;;;54.88;42.95;;;;;;;;;;5052253;28;20037;-61
2023/09/09 06:50:29;;;;;;;51.55;41.65;;;;;;;;;;5035292;28;20089;-61
2023/09/09 06:52:55;;;;;;;62.22;45.35;;;;;;;;;;5053530;28;20123;-61
2023/09/09 06:55:21;;;;;;;52.55;42.42;;;;;;;;;;5053565;28;20056;-61
2023/09/09 06:57:47;;;;;;;52.35;41.25;;;;;;;;;;5053485;28;20048;-61
2023/09/09 07:00:13;;;;;;;51.13;40.17;;;;;;;;;;5053392;28;20045;-61
2023/09/09 07:02:40;;;;;;;52.97;39.25;;;;;;;;;;5053399;28;20094;-61
2023/09/09 07:05:07;;;;;;;48.78;39.35;;;;;;;;;;5053424;28;20037;-61
2023/09/09 07:07:33;;;;;;;53.80;41.80;;;;;;;;;;5053332;28;20072;-61
2023/09/09 07:09:59;;;;;;;46.35;37.92;;;;;;;;;;5053231;28;20052;-61
2023/09/09 07:12:25;;;;;;;51.45;40.45;;;;;;;;;;5052695;28;20037;-61
2023/09/09 07:14:51;;;;;;;50.70;39.72;;;;;;;;;;5053358;28;20115;-61
2023/09/09 07:17:17;;;;;;;44.22;38.50;;;;;;;;;;5039306;28;20121;-61
2023/09/09 07:19:43;;;;;;;49.03;38.42;;;;;;;;;;5034086;28;20129;-61
2023/09/09 07:22:10;;;;;;;52.60;38.78;;;;;;;;;;5033582;28;20391;-61
2023/09/09 07:24:36;;;;;;;47.90;37.10;;;;;;;;;;5033929;28;20407;-61
2023/09/09 07:27:03;;;;;;;45.38;35.55;;;;;;;;;;5034011;28;20052;-61
2023/09/09 07:29:29;;;;;;;44.45;36.10;;;;;;;;;;5033710;28;20124;-61
2023/09/09 07:31:56;;;;;;;47.17;37.95;;;;;;;;;;5033860;28;20052;-61
2023/09/09 07:34:23;;;;;;;46.95;37.70;;;;;;;;;;5033710;28;20118;-61
2023/09/09 07:36:49;;;;;;;48.30;37.92;;;;;;;;;;5033080;28;20077;-61
2023/09/09 07:39:15;;;;;;;52.83;39.42;;;;;;;;;;5033723;28;20046;-61
2023/09/09 07:41:41;;;;;;;54.85;40.42;;;;;;;;;;5033605;28;20069;-61
2023/09/09 07:44:07;;;;;;;48.90;39.70;;;;;;;;;;5033012;28;20069;-61
2023/09/09 07:46:33;;;;;;;48.88;38.92;;;;;;;;;;5033558;28;20045;-61
2023/09/09 07:48:59;;;;;;;51.67;39.78;;;;;;;;;;5033580;28;20099;-61
2023/09/09 07:51:25;;;;;;;51.63;40.55;;;;;;;;;;5032648;28;20057;-61
2023/09/09 07:53:52;;;;;;;50.67;40.85;;;;;;;;;;5033379;28;20414;-61
2023/09/09 07:56:18;;;;;;;52.42;41.10;;;;;;;;;;5033353;28;20372;-61
2023/09/09 07:58:44;;;;;;;52.83;41.70;;;;;;;;;;5032734;28;20050;-61
2023/09/09 08:01:11;;;;;;;53.67;41.72;;;;;;;;;;5033324;28;20484;-61
2023/09/09 08:03:37;;;;;;;64.00;45.15;;;;;;;;;;5015105;28;20411;-61
2023/09/09 08:06:06;;;;;;;57.63;43.28;;;;;;;;;;5033098;28;20048;-61
2023/09/09 08:08:37;;;;;;;63.13;45.08;;;;;;;;;;5032969;28;20045;-61
2023/09/09 08:11:04;;;;;;;62.17;47.72;;;;;;;;;;5033143;28;20044;-61
2023/09/09 08:13:30;;;;;;;68.70;48.45;;;;;;;;;;5032600;28;20038;-61
2023/09/09 08:15:58;;;;;;;66.63;46.65;;;;;;;;;;5036405;28;20055;-61
2023/09/09 08:18:24;;;;;;;59.38;47.00;;;;;;;;;;5052910;28;20049;-61
2023/09/09 08:20:50;;;;;;;60.70;47.35;;;;;;;;;;5052673;28;20045;-61
2023/09/09 08:23:17;;;;;;;63.78;46.88;;;;;;;;;;5034669;28;20044;-61
2023/09/09 08:25:43;;;;;;;55.63;44.28;;;;;;;;;;5052726;28;20048;-61
2023/09/09 08:28:09;;;;;;;53.95;43.80;;;;;;;;;;5052713;28;20037;-61
2023/09/09 08:30:36;;;;;;;57.55;45.42;;;;;;;;;;5052054;28;20053;-61
2023/09/09 08:33:02;;;;;;;58.88;46.35;;;;;;;;;;5052743;28;20459;-61
2023/09/09 08:35:31;;;;;;;66.53;50.90;;;;;;;;;;5052498;28;20045;-61
2023/09/09 08:37:59;;;;;;;66.32;49.17;;;;;;;;;;5052258;28;20071;-61
2023/09/09 08:40:25;;;;;;;63.33;49.15;;;;;;;;;;5052134;28;20049;-61
2023/09/09 08:43:07;;;;;;;70.93;50.92;;;;;;;;;;5034504;28;20051;-61
2023/09/09 08:45:40;;;;;;;62.40;49.20;;;;;;;;;;5052389;28;20033;-61
2023/09/09 08:48:07;;;;;;;63.67;50.17;;;;;;;;;;5052389;28;20051;-61
2023/09/09 08:50:38;;;;;;;65.78;49.40;;;;;;;;;;5051546;28;20095;-61
2023/09/09 08:53:04;;;;;;;64.40;50.47;;;;;;;;;;5051922;28;20040;-61
2023/09/09 08:55:31;;;;;;;64.15;49.58;;;;;;;;;;5052126;28;20044;-61
2023/09/09 08:57:57;;;;;;;66.20;50.50;;;;;;;;;;5051985;28;20099;-61
2023/09/09 09:00:23;;;;;;;63.38;50.20;;;;;;;;;;5052134;28;20471;-61
2023/09/09 09:02:50;;;;;;;64.53;51.03;;;;;;;;;;5052221;28;20475;-61
2023/09/09 09:05:17;;;;;;;67.43;50.08;;;;;;;;;;5051726;28;20040;-61
2023/09/09 09:07:43;;;;;;;61.78;47.00;;;;;;;;;;5051930;28;20079;-61
2023/09/09 09:10:09;;;;;;;59.72;46.10;;;;;;;;;;5051702;28;20044;-61
2023/09/09 09:12:36;;;;;;;59.08;46.63;;;;;;;;;;5051988;28;20044;-61
2023/09/09 09:15:03;;;;;;;65.72;48.10;;;;;;;;;;5051541;28;20048;-61
2023/09/09 09:17:30;;;;;;;62.67;47.50;;;;;;;;;;5035710;28;20132;-61
2023/09/09 09:19:57;;;;;;;59.85;45.50;;;;;;;;;;5031932;28;20507;-61
2023/09/09 09:22:23;;;;;;;59.38;48.45;;;;;;;;;;5031509;28;20132;-61
2023/09/09 09:24:49;;;;;;;66.78;50.80;;;;;;;;;;5031532;28;20037;-61
2023/09/09 09:27:15;;;;;;;61.33;48.55;;;;;;;;;;5031811;28;20076;-61
2023/09/09 09:29:42;;;;;;;65.43;48.47;;;;;;;;;;5031484;28;20087;-61
2023/09/09 09:32:12;;;;;;;62.38;47.03;;;;;;;;;;5031796;28;20563;-61
2023/09/09 09:34:38;;;;;;;64.00;47.15;;;;;;;;;;5031475;28;20041;-61
2023/09/09 09:37:11;;;;;;;54.70;44.35;;;;;;;;;;5031330;28;20041;-61
2023/09/09 09:39:37;;;;;;;55.35;44.33;;;;;;;;;;5031675;28;20365;-61
2023/09/09 09:42:03;;;;;;;56.20;44.95;;;;;;;;;;5031439;28;20474;-61
2023/09/09 09:44:30;;;;;;;48.13;38.30;;;;;;;;;;5031166;28;20099;-61
2023/09/09 09:47:03;;;;;;;44.10;34.85;;;;;;;;;;5031403;28;20079;-61
2023/09/09 09:49:34;;;;;;;43.55;35.03;;;;;;;;;;5031492;28;20179;-61
2023/09/09 09:52:00;;;;;;;39.60;33.17;;;;;;;;;;5031203;28;20533;-61
2023/09/09 09:54:26;;;;;;;39.45;32.83;;;;;;;;;;5031434;28;20034;-61
2023/09/09 09:56:53;;;;;;;38.67;31.85;;;;;;;;;;5031444;28;20480;-61
2023/09/09 09:59:20;;;;;;;36.08;30.88;;;;;;;;;;5031163;28;20045;-61
2023/09/09 10:01:48;;;;;;;42.25;32.92;;;;;;;;;;5031485;28;20038;-61
2023/09/09 10:04:17;;;;;;;38.50;31.80;;;;;;;;;;5031383;28;20037;-61
2023/09/09 10:06:45;;;;;;;38.38;29.83;;;;;;;;;;5030990;28;20037;-61
2023/09/09 10:09:18;;;;;;;38.00;30.50;;;;;;;;;;5031397;28;20045;-61
2023/09/09 10:11:53;;;;;;;37.03;29.30;;;;;;;;;;5031453;28;20044;-61
2023/09/09 10:14:23;;;;;;;37.03;31.00;;;;;;;;;;5031149;28;20045;-61
2023/09/09 10:16:52;;;;;;;39.47;30.35;;;;;;;;;;5041606;28;20053;-61
2023/09/09 10:19:18;;;;;;;36.28;28.95;;;;;;;;;;5051064;28;20037;-61
2023/09/09 10:21:45;;;;;;;30.90;26.38;;;;;;;;;;5051558;28;20087;-61
2023/09/09 10:24:11;;;;;;;34.70;24.40;;;;;;;;;;5055105;28;20045;-61
2023/09/09 10:26:38;;;;;;;32.75;22.92;;;;;;;;;;5054969;28;20048;-61
2023/09/09 10:29:05;;;;;;;27.58;22.45;;;;;;;;;;5036845;28;20033;-61
2023/09/09 10:31:31;;;;;;;26.80;21.08;;;;;;;;;;5055045;28;20044;-61
2023/09/09 10:33:57;;;;;;;25.42;20.45;;;;;;;;;;5054998;28;20043;-61
2023/09/09 10:36:27;;;;;;;22.60;19.73;;;;;;;;;;5054486;28;20041;-61
2023/09/09 10:38:56;;;;;;;24.40;20.00;;;;;;;;;;5054904;28;20406;-61
2023/09/09 10:41:22;;;;;;;23.45;18.48;;;;;;;;;;5054352;28;20056;-61
2023/09/09 10:43:48;;;;;;;23.60;20.88;;;;;;;;;;5054300;28;20045;-61
2023/09/09 10:46:15;;;;;;;21.45;19.10;;;;;;;;;;5054593;28;20033;-61
2023/09/09 10:48:44;;;;;;;22.50;18.60;;;;;;;;;;5054542;28;20041;-61
2023/09/09 10:51:13;;;;;;;24.60;18.92;;;;;;;;;;5053834;28;20110;-61
2023/09/09 10:53:39;;;;;;;17.95;16.05;;;;;;;;;;5054573;28;20107;-62
2023/09/09 10:56:17;;;;;;;20.38;16.50;;;;;;;;;;5054402;28;20128;-62
2023/09/09 10:58:43;;;;;;;21.17;17.63;;;;;;;;;;5054454;28;20095;-62
2023/09/09 11:01:09;;;;;;;24.17;18.23;;;;;;;;;;5054451;28;20087;-62
2023/09/09 11:03:55;;;;;;;22.52;16.85;;;;;;;;;;5054253;28;20044;-62
2023/09/09 11:06:27;;;;;;;22.50;17.88;;;;;;;;;;5053808;28;20226;-62
2023/09/09 11:08:53;;;;;;;;;;;;;;;;;;5036544;28;20418;-61
2023/09/09 11:11:24;;;;;;;27.13;20.20;;;;;;;;;;5053849;28;19916;-61
2023/09/09 11:13:51;;;;;;;27.42;20.15;;;;;;;;;;5054097;28;20041;-61
2023/09/09 11:16:31;;;;;;;24.45;20.90;;;;;;;;;;5047607;28;20467;-61
2023/09/09 11:18:57;;;;;;;26.58;21.40;;;;;;;;;;5033694;28;20045;-61
2023/09/09 11:21:24;;;;;;;27.70;19.55;;;;;;;;;;5034064;28;20377;-61
2023/09/09 11:23:52;;;;;;;18.40;16.10;;;;;;;;;;5033628;28;20042;-61
2023/09/09 11:26:19;;;;;;;20.85;17.85;;;;;;;;;;5033716;28;20037;-61
2023/09/09 11:28:49;;;;;;;20.35;16.83;;;;;;;;;;5033785;28;20045;-61
2023/09/09 11:31:15;;;;;;;22.17;17.17;;;;;;;;;;5033856;28;20499;-61
2023/09/09 11:33:41;;;;;;;24.42;18.27;;;;;;;;;;5032996;28;20037;-61
2023/09/09 11:36:08;;;;;;;19.20;16.98;;;;;;;;;;5033796;28;20048;-61
2023/09/09 11:38:34;;;;;;;22.67;16.88;;;;;;;;;;5033717;28;20060;-62
2023/09/09 11:41:00;;;;;;;21.20;16.08;;;;;;;;;;5033093;28;20708;-62
2023/09/09 11:43:26;;;;;;;20.23;14.73;;;;;;;;;;5033596;28;20064;-62
2023/09/09 11:45:54;;;;;;;18.50;13.73;;;;;;;;;;5033671;28;20096;-62
2023/09/09 11:48:20;;;;;;;17.17;13.65;;;;;;;;;;5033298;28;20128;-62
2023/09/09 11:50:47;;;;;;;16.75;13.15;;;;;;;;;;5033262;28;20057;-62
2023/09/09 11:53:13;;;;;;;17.02;13.30;;;;;;;;;;5015437;28;20128;-62
2023/09/09 11:55:39;;;;;;;20.67;14.23;;;;;;;;;;5032981;28;20052;-62
2023/09/09 11:58:06;;;;;;;20.13;13.30;;;;;;;;;;5033409;28;20124;-62
2023/09/09 12:00:32;;;;;;;17.13;12.90;;;;;;;;;;5033362;28;20059;-62
2023/09/09 12:02:58;;;;;;;16.27;11.32;;;;;;;;;;5032926;28;20506;-62
2023/09/09 12:05:29;;;;;;;15.13;11.55;;;;;;;;;;5033265;28;20084;-62
2023/09/09 12:07:55;;;;;;;14.35;10.95;;;;;;;;;;5033255;28;20442;-62
2023/09/09 12:10:21;;;;;;;10.98;8.30;;;;;;;;;;5032834;28;20129;-62
2023/09/09 12:12:48;;;;;;;12.20;9.10;;;;;;;;;;5033249;28;20064;-62
2023/09/09 12:15:15;;;;;;;12.27;8.73;;;;;;;;;;5033026;28;20041;-62
2023/09/09 12:17:41;;;;;;;11.80;8.82;;;;;;;;;;5050211;28;20041;-62
2023/09/09 12:20:10;;;;;;;9.52;8.25;;;;;;;;;;5052757;28;20436;-62
2023/09/09 12:22:41;;;;;;;14.07;7.05;;;;;;;;;;5034753;28;20120;-62
2023/09/09 12:25:27;;;;;;;11.07;7.30;;;;;;;;;;5052492;28;20036;-62
2023/09/09 12:27:53;;;;;;;8.50;7.15;;;;;;;;;;5052818;28;20079;-62
2023/09/09 12:30:35;;;;;;;9.85;7.93;;;;;;;;;;5052677;28;20048;-62
2023/09/09 12:33:06;;;;;;;11.48;8.20;;;;;;;;;;5052254;28;20041;-62
2023/09/09 12:35:35;;;;;;;8.52;7.63;;;;;;;;;;5052432;28;20072;-62
2023/09/09 12:38:02;;;;;;;12.68;8.48;;;;;;;;;;5052586;28;20041;-62
2023/09/09 12:40:28;;;;;;;11.70;8.13;;;;;;;;;;5052099;28;20045;-62
2023/09/09 12:42:57;;;;;;;9.15;6.90;;;;;;;;;;5052540;28;20478;-62
2023/09/09 12:45:26;;;;;;;9.02;7.30;;;;;;;;;;5051730;28;20116;-62
2023/09/09 12:47:52;;;;;;;8.60;7.03;;;;;;;;;;5052029;28;20099;-62
2023/09/09 12:50:18;;;;;;;7.63;6.28;;;;;;;;;;5051917;28;20071;-62
2023/09/09 12:52:44;;;;;;;10.23;6.55;;;;;;;;;;5052342;28;20049;-62
2023/09/09 12:55:11;;;;;;;9.30;7.07;;;;;;;;;;5051804;28;20036;-62
2023/09/09 12:57:37;;;;;;;9.07;7.20;;;;;;;;;;5052223;28;20059;-62
2023/09/09 13:00:04;;;;;;;11.18;8.13;;;;;;;;;;5052084;28;20041;-62
2023/09/09 13:02:30;;;;;;;8.13;6.30;;;;;;;;;;5051826;28;20491;-62
2023/09/09 13:04:56;;;;;;;9.13;7.38;;;;;;;;;;5034052;28;20621;-62
2023/09/09 13:07:22;;;;;;;10.00;7.25;;;;;;;;;;5052052;28;20129;-62
2023/09/09 13:09:48;;;;;;;8.30;7.38;;;;;;;;;;5051830;28;20037;-62
2023/09/09 13:12:14;;;;;;;8.88;6.75;;;;;;;;;;5051976;28;20048;-62
2023/09/09 13:14:40;;;;;;;10.90;7.57;;;;;;;;;;5051733;28;20047;-62
2023/09/09 13:17:06;;;;;;;12.48;8.77;;;;;;;;;;5038335;28;20045;-62
2023/09/09 13:19:32;;;;;;;10.50;7.15;;;;;;;;;;5031913;28;20038;-62
2023/09/09 13:21:59;;;;;;;11.02;9.40;;;;;;;;;;5031973;28;20069;-62
2023/09/09 13:24:25;;;;;;;12.32;7.40;;;;;;;;;;5031493;28;20091;-62
2023/09/09 13:26:51;;;;;;;11.15;7.80;;;;;;;;;;5031835;28;20037;-62
2023/09/09 13:29:17;;;;;;;12.63;7.78;;;;;;;;;;5031805;28;20490;-62
2023/09/09 13:31:43;;;;;;;12.13;8.40;;;;;;;;;;5031158;28;20056;-63
2023/09/09 13:34:09;;;;;;;15.07;8.50;;;;;;;;;;5031458;28;20034;-63
2023/09/09 13:36:36;;;;;;;8.38;7.43;;;;;;;;;;5031564;28;20077;-63
2023/09/09 13:39:02;;;;;;;10.80;8.15;;;;;;;;;;5031262;28;20055;-63
2023/09/09 13:41:28;;;;;;;10.43;7.25;;;;;;;;;;5030963;28;20052;-63
2023/09/09 13:43:54;;;;;;;12.55;8.77;;;;;;;;;;5031698;28;20033;-63
2023/09/09 13:46:21;;;;;;;9.30;7.45;;;;;;;;;;5031586;28;20072;-63
2023/09/09 13:48:47;;;;;;;8.75;7.63;;;;;;;;;;5031240;28;20037;-63
2023/09/09 13:51:13;;;;;;;10.43;7.40;;;;;;;;;;5031172;28;20068;-62
2023/09/09 13:53:39;;;;;;;9.57;7.35;;;;;;;;;;5031316;28;20428;-63
2023/09/09 13:56:05;;;;;;;8.70;7.88;;;;;;;;;;5031851;28;20041;-63
2023/09/09 13:58:31;;;;;;;10.20;8.07;;;;;;;;;;5035667;28;20064;-62
2023/09/09 14:00:57;;;;;;;8.48;7.57;;;;;;;;;;5035633;28;20033;-62
2023/09/09 14:03:23;;;;;;;9.23;6.57;;;;;;;;;;5035174;28;20042;-63
2023/09/09 14:05:49;;;;;;;11.05;7.97;;;;;;;;;;5035542;28;20040;-63
2023/09/09 14:08:15;;;;;;;12.20;7.15;;;;;;;;;;5035560;28;20072;-63
2023/09/09 14:10:41;;;;;;;8.65;6.47;;;;;;;;;;5035033;28;20047;-63
2023/09/09 14:13:07;;;;;;;8.32;6.38;;;;;;;;;;5035137;28;20398;-62
2023/09/09 14:15:33;;;;;;;8.60;6.55;;;;;;;;;;5035246;28;20044;-62
2023/09/09 14:17:59;;;;;;;7.60;6.85;;;;;;;;;;5054972;28;20063;-62